createdAt,value
2023-04-06T00:02:22.867Z,64.40
2023-04-06T00:04:51.128Z,66.33
2023-04-06T00:07:18.011Z,65.12
2023-04-06T00:09:44.840Z,66.20
2023-04-06T00:12:11.673Z,67.42
2023-04-06T00:14:38.500Z,66.66
2023-04-06T00:17:05.449Z,66.92
2023-04-06T00:19:32.423Z,68.12
2023-04-06T00:22:00.688Z,67.90
2023-04-06T00:24:27.529Z,66.82
2023-04-06T00:26:54.323Z,67.51
2023-04-06T00:29:21.233Z,68.24
2023-04-06T00:31:48.036Z,68.11
2023-04-06T00:34:14.855Z,68.28
2023-04-06T00:36:41.770Z,68.49
2023-04-06T00:39:10.676Z,66.74
2023-04-06T00:41:37.535Z,67.41
2023-04-06T00:44:04.435Z,67.01
2023-04-06T00:46:31.505Z,68.14
2023-04-06T00:48:58.464Z,68.04
2023-04-06T00:51:25.314Z,67.40
2023-04-06T00:53:52.200Z,68.84
2023-04-06T00:56:20.493Z,69.36
2023-04-06T00:58:47.349Z,68.68
2023-04-06T01:01:14.137Z,67.76
2023-04-06T01:03:40.999Z,70.42
2023-04-06T01:06:07.907Z,70.03
2023-04-06T01:08:34.849Z,68.26
2023-04-06T01:11:01.778Z,68.04
2023-04-06T01:13:30.174Z,68.56
2023-04-06T01:15:57.239Z,69.18
2023-04-06T01:18:27.211Z,72.73
2023-04-06T01:20:54.118Z,73.59
2023-04-06T01:23:22.553Z,73.89
2023-04-06T01:25:49.358Z,76.71
2023-04-06T01:28:16.217Z,73.97
2023-04-06T01:30:43.048Z,74.48
2023-04-06T01:33:09.859Z,73.15
2023-04-06T01:35:36.799Z,71.14
2023-04-06T01:38:03.702Z,70.05
2023-04-06T01:40:31.959Z,70.52
2023-04-06T01:42:58.727Z,69.49
2023-04-06T01:45:25.539Z,70.36
2023-04-06T01:47:52.390Z,68.90
2023-04-06T01:50:19.260Z,69.93
2023-04-06T01:52:46.179Z,69.20
2023-04-06T01:55:13.008Z,68.19
2023-04-06T01:57:41.244Z,69.68
2023-04-06T02:00:09.180Z,70.80
2023-04-06T02:02:36.137Z,69.53
2023-04-06T02:05:03.092Z,70.13
2023-04-06T02:07:29.970Z,70.62
2023-04-06T02:09:56.797Z,73.57
2023-04-06T02:12:23.572Z,74.10
2023-04-06T02:14:51.902Z,71.67
2023-04-06T02:17:18.812Z,70.28
2023-04-06T02:19:45.600Z,69.37
2023-04-06T02:22:12.578Z,69.67
2023-04-06T02:24:39.367Z,70.33
2023-04-06T02:27:06.297Z,73.09
2023-04-06T02:29:33.184Z,70.62
2023-04-06T02:32:01.556Z,71.34
2023-04-06T02:34:28.531Z,73.28
2023-04-06T02:36:55.387Z,71.98
2023-04-06T02:39:22.220Z,70.98
2023-04-06T02:41:49.163Z,71.30
2023-04-06T02:44:15.985Z,71.44
2023-04-06T02:46:42.825Z,70.04
2023-04-06T02:49:11.101Z,70.46
2023-04-06T02:51:37.958Z,70.21
2023-04-06T02:54:04.894Z,70.02
2023-04-06T02:56:31.694Z,70.36
2023-04-06T02:58:58.628Z,69.83
2023-04-06T03:01:25.566Z,69.80
2023-04-06T03:03:52.543Z,70.51
2023-04-06T03:06:20.853Z,70.71
2023-04-06T03:08:47.728Z,70.22
2023-04-06T03:11:14.571Z,69.88
2023-04-06T03:13:41.476Z,72.96
2023-04-06T03:16:08.411Z,71.80
2023-04-06T03:18:35.275Z,71.87
2023-04-06T03:21:02.074Z,71.98
2023-04-06T03:23:30.362Z,71.85
2023-04-06T03:25:57.150Z,73.31
2023-04-06T03:28:24.064Z,73.43
2023-04-06T03:30:50.926Z,71.98
2023-04-06T03:33:17.726Z,72.71
2023-04-06T03:35:44.737Z,71.49
2023-04-06T03:38:11.613Z,72.48
2023-04-06T03:40:39.973Z,74.30
2023-04-06T03:43:06.882Z,74.55
2023-04-06T03:45:33.700Z,76.39
2023-04-06T03:48:00.587Z,73.72
2023-04-06T03:50:27.456Z,73.80
2023-04-06T03:52:54.344Z,74.04
2023-04-06T03:55:21.212Z,73.68
2023-04-06T03:57:49.421Z,72.15
2023-04-06T04:00:16.723Z,73.40
2023-04-06T04:02:43.703Z,72.25
2023-04-06T04:05:10.889Z,73.41
2023-04-06T04:07:37.783Z,73.34
2023-04-06T04:10:05.243Z,72.89
2023-04-06T04:12:32.083Z,73.54
2023-04-06T04:15:00.299Z,73.38
2023-04-06T04:17:27.202Z,72.97
2023-04-06T04:19:54.128Z,73.37
2023-04-06T04:22:20.948Z,73.27
2023-04-06T04:24:47.824Z,74.23
2023-04-06T04:27:14.627Z,76.34
2023-04-06T04:29:41.423Z,74.98
2023-04-06T04:32:09.933Z,73.49
2023-04-06T04:34:36.828Z,73.66
2023-04-06T04:37:03.699Z,75.20
2023-04-06T04:39:30.549Z,74.39
2023-04-06T04:41:57.439Z,74.60
2023-04-06T04:44:24.249Z,75.53
2023-04-06T04:46:51.152Z,74.32
2023-04-06T04:49:19.424Z,74.43
2023-04-06T04:51:46.305Z,75.09
2023-04-06T04:54:13.179Z,75.98
2023-04-06T04:56:40.074Z,73.09
2023-04-06T04:59:07.258Z,73.35
2023-04-06T05:01:47.420Z,73.74
2023-04-06T05:04:23.642Z,74.75
2023-04-06T05:06:50.501Z,74.25
2023-04-06T05:09:17.301Z,74.62
2023-04-06T05:11:44.185Z,73.04
2023-04-06T05:14:11.113Z,73.13
2023-04-06T05:16:37.940Z,73.84
2023-04-06T05:19:04.787Z,72.87
2023-04-06T05:21:33.040Z,73.30
2023-04-06T05:23:59.836Z,73.04
2023-04-06T05:26:26.691Z,73.10
2023-04-06T05:28:53.636Z,73.57
2023-04-06T05:31:20.527Z,74.25
2023-04-06T05:33:47.547Z,73.03
2023-04-06T05:36:15.369Z,72.90
2023-04-06T05:38:43.809Z,73.59
2023-04-06T05:41:10.692Z,76.02
2023-04-06T05:43:37.861Z,74.92
2023-04-06T05:46:05.118Z,75.43
2023-04-06T05:48:32.121Z,75.23
2023-04-06T05:50:58.994Z,76.53
2023-04-06T05:53:25.893Z,74.89
2023-04-06T05:55:54.151Z,75.22
2023-04-06T05:58:21.123Z,75.76
2023-04-06T06:00:47.929Z,77.19
2023-04-06T06:03:15.784Z,77.81
2023-04-06T06:05:42.748Z,76.84
2023-04-06T06:08:09.615Z,72.45
2023-04-06T06:10:36.487Z,68.19
2023-04-06T06:13:04.676Z,63.49
2023-04-06T06:15:31.692Z,62.14
2023-04-06T06:17:58.669Z,59.33
2023-04-06T06:20:25.706Z,58.94
2023-04-06T06:22:52.629Z,59.11
2023-04-06T06:25:19.542Z,57.44
2023-04-06T06:27:46.668Z,55.70
2023-04-06T06:30:15.430Z,55.31
2023-04-06T06:32:42.344Z,54.00
2023-04-06T06:35:09.824Z,51.47
2023-04-06T06:37:37.152Z,50.23
2023-04-06T06:40:04.652Z,48.94
2023-04-06T06:42:31.549Z,48.59
2023-04-06T06:44:58.834Z,47.30
2023-04-06T06:47:29.510Z,46.55
2023-04-06T06:49:57.673Z,45.89
2023-04-06T06:52:24.722Z,45.36
2023-04-06T06:54:57.172Z,44.62
2023-04-06T06:57:27.184Z,45.25
2023-04-06T06:59:55.082Z,44.63
2023-04-06T07:02:21.990Z,44.42
2023-04-06T07:04:50.735Z,43.16
2023-04-06T07:07:17.647Z,42.38
2023-04-06T07:09:44.564Z,42.09
2023-04-06T07:12:11.369Z,42.86
2023-04-06T07:14:38.241Z,43.79
2023-04-06T07:17:05.167Z,41.87
2023-04-06T07:19:32.395Z,42.31
2023-04-06T07:22:00.600Z,42.84
2023-04-06T07:24:27.470Z,41.25
2023-04-06T07:26:54.476Z,41.05
2023-04-06T07:29:21.326Z,41.12
2023-04-06T07:31:48.326Z,41.56
2023-04-06T07:34:15.194Z,40.19
2023-04-06T07:36:42.213Z,41.11
2023-04-06T07:39:10.491Z,40.79
2023-04-06T07:41:37.697Z,41.03
2023-04-06T07:44:05.656Z,41.20
2023-04-06T07:46:32.790Z,40.70
2023-04-06T07:49:00.718Z,39.12
2023-04-06T07:51:27.736Z,40.02
2023-04-06T07:53:54.549Z,38.77
2023-04-06T07:56:22.910Z,39.50
2023-04-06T07:58:51.014Z,39.99
2023-04-06T08:01:19.016Z,39.62
2023-04-06T08:03:47.272Z,39.70
2023-04-06T08:06:14.256Z,39.15
2023-04-06T08:08:41.190Z,38.14
2023-04-06T08:11:08.065Z,38.32
2023-04-06T08:13:36.754Z,38.77
2023-04-06T08:16:03.906Z,38.40
2023-04-06T08:18:30.818Z,37.41
2023-04-06T08:20:57.808Z,37.28
2023-04-06T08:23:24.957Z,37.36
2023-04-06T08:25:52.067Z,37.44
2023-04-06T08:28:19.173Z,36.92
2023-04-06T08:30:47.689Z,37.31
2023-04-06T08:33:14.850Z,36.97
2023-04-06T08:35:41.891Z,36.72
2023-04-06T08:38:08.913Z,35.94
2023-04-06T08:40:37.845Z,34.95
2023-04-06T08:43:09.844Z,34.19
2023-04-06T08:45:37.001Z,35.50
2023-04-06T08:48:06.558Z,36.36
2023-04-06T08:50:34.184Z,36.00
2023-04-06T08:53:02.317Z,35.23
2023-04-06T08:55:29.476Z,34.92
2023-04-06T08:57:57.425Z,33.85
2023-04-06T09:00:26.638Z,34.17
2023-04-06T09:02:56.462Z,34.64
2023-04-06T09:05:26.200Z,34.04
2023-04-06T09:07:53.751Z,34.08
2023-04-06T09:10:20.752Z,34.44
2023-04-06T09:12:47.721Z,34.57
2023-04-06T09:15:24.167Z,33.71
2023-04-06T09:17:51.831Z,32.25
2023-04-06T09:20:24.900Z,33.08
2023-04-06T09:22:51.803Z,33.77
2023-04-06T09:25:20.612Z,33.91
2023-04-06T09:27:47.785Z,31.94
2023-04-06T09:30:15.557Z,32.63
2023-04-06T09:32:48.299Z,33.90
2023-04-06T09:35:15.441Z,30.50
2023-04-06T09:37:44.369Z,32.78
2023-04-06T09:40:12.331Z,33.30
2023-04-06T09:42:41.391Z,34.28
2023-04-06T09:45:09.274Z,32.54
2023-04-06T09:47:37.580Z,32.46
2023-04-06T09:50:05.954Z,31.52
2023-04-06T09:52:34.759Z,31.66
2023-04-06T09:55:06.363Z,29.74
2023-04-06T09:57:39.162Z,31.16
2023-04-06T10:00:08.409Z,30.88
2023-04-06T10:02:42.193Z,31.13
2023-04-06T10:05:14.281Z,32.45
2023-04-06T10:07:56.812Z,30.56
2023-04-06T10:10:28.922Z,31.28
2023-04-06T10:12:56.132Z,29.58
2023-04-06T10:15:23.271Z,29.80
2023-04-06T10:17:50.359Z,29.20
2023-04-06T10:20:32.503Z,29.35
2023-04-06T10:23:05.978Z,26.90
2023-04-06T10:25:34.684Z,28.97
2023-04-06T10:28:02.081Z,28.11
2023-04-06T10:30:29.893Z,28.57
2023-04-06T10:32:56.948Z,29.61
2023-04-06T10:35:23.983Z,29.72
2023-04-06T10:37:53.149Z,30.78
2023-04-06T10:40:24.185Z,31.99
2023-04-06T10:42:52.717Z,29.45
2023-04-06T10:45:24.680Z,28.84
2023-04-06T10:47:53.773Z,29.07
2023-04-06T10:50:21.533Z,27.69
2023-04-06T10:53:00.274Z,27.48
2023-04-06T10:55:27.896Z,28.56
2023-04-06T10:57:56.242Z,29.51
2023-04-06T11:00:23.680Z,28.62
2023-04-06T11:02:50.608Z,28.67
2023-04-06T11:05:17.501Z,29.17
2023-04-06T11:07:45.294Z,28.50
2023-04-06T11:10:17.573Z,27.83
2023-04-06T11:12:46.024Z,28.05
2023-04-06T11:15:14.499Z,29.21
2023-04-06T11:17:41.951Z,27.80
2023-04-06T11:20:12.015Z,26.92
2023-04-06T11:22:49.483Z,26.89
2023-04-06T11:25:16.357Z,26.09
2023-04-06T11:27:44.168Z,26.22
2023-04-06T11:30:11.800Z,25.79
2023-04-06T11:32:42.700Z,27.27
2023-04-06T11:35:12.211Z,24.82
2023-04-06T11:37:39.109Z,28.69
2023-04-06T11:40:09.685Z,27.13
2023-04-06T11:42:36.652Z,28.29
2023-04-06T11:45:04.233Z,29.02
2023-04-06T11:47:33.554Z,28.19
2023-04-06T11:50:10.203Z,29.47
2023-04-06T11:52:37.110Z,28.54
2023-04-06T11:55:12.687Z,25.79
2023-04-06T11:57:39.840Z,27.26
2023-04-06T12:00:09.485Z,24.73
2023-04-06T12:02:36.417Z,23.41
2023-04-06T12:05:03.579Z,25.71
2023-04-06T12:07:32.029Z,25.89
2023-04-06T12:09:59.472Z,26.45
2023-04-06T12:12:26.537Z,26.33
2023-04-06T12:14:53.572Z,26.23
2023-04-06T12:17:21.604Z,24.94
2023-04-06T12:19:48.759Z,26.09
2023-04-06T12:22:16.269Z,27.18
2023-04-06T12:24:44.550Z,24.89
2023-04-06T12:27:11.443Z,28.07
2023-04-06T12:29:38.511Z,25.71
2023-04-06T12:32:05.526Z,24.28
2023-04-06T12:34:32.836Z,25.99
2023-04-06T12:36:59.914Z,26.35
2023-04-06T12:39:28.116Z,26.00
2023-04-06T12:41:56.486Z,29.00
2023-04-06T12:44:24.757Z,23.18
2023-04-06T12:46:52.439Z,27.65
2023-04-06T12:49:19.314Z,25.46
2023-04-06T12:51:46.244Z,23.73
2023-04-06T12:54:13.118Z,24.25
2023-04-06T12:56:40.017Z,24.76
2023-04-06T12:59:08.690Z,25.94
2023-04-06T13:01:35.942Z,25.13
2023-04-06T13:04:02.898Z,24.61
2023-04-06T13:06:30.191Z,26.29
2023-04-06T13:08:57.061Z,24.01
2023-04-06T13:11:25.046Z,26.62
2023-04-06T13:13:52.469Z,25.40
2023-04-06T13:16:20.724Z,25.98
2023-04-06T13:18:47.682Z,26.00
2023-04-06T13:21:15.494Z,25.20
2023-04-06T13:23:42.495Z,25.53
2023-04-06T13:26:09.340Z,25.97
2023-04-06T13:28:37.469Z,24.91
2023-04-06T13:31:04.459Z,24.25
2023-04-06T13:33:32.728Z,25.89
2023-04-06T13:35:59.795Z,27.57
2023-04-06T13:38:26.668Z,25.07
2023-04-06T13:40:53.700Z,25.37
2023-04-06T13:43:20.515Z,26.71
2023-04-06T13:45:50.725Z,25.33
2023-04-06T13:48:17.684Z,24.76
2023-04-06T13:50:46.017Z,25.53
2023-04-06T13:53:13.091Z,25.62
2023-04-06T13:55:39.834Z,26.07
2023-04-06T13:58:06.667Z,25.49
2023-04-06T14:00:33.628Z,24.48
2023-04-06T14:03:00.559Z,24.52
2023-04-06T14:05:27.352Z,28.76
2023-04-06T14:07:55.642Z,25.85
2023-04-06T14:10:22.410Z,28.41
2023-04-06T14:12:49.305Z,28.60
2023-04-06T14:15:16.255Z,26.07
2023-04-06T14:17:43.040Z,26.12
2023-04-06T14:20:10.858Z,27.84
2023-04-06T14:22:38.488Z,27.41
2023-04-06T14:25:08.539Z,27.39
2023-04-06T14:27:35.389Z,27.75
2023-04-06T14:30:02.246Z,28.60
2023-04-06T14:32:28.993Z,26.63
2023-04-06T14:34:55.839Z,26.53
2023-04-06T14:37:22.545Z,27.72
2023-04-06T14:39:49.319Z,27.60
2023-04-06T14:42:17.407Z,27.41
2023-04-06T14:44:44.897Z,29.50
2023-04-06T14:47:11.902Z,26.53
2023-04-06T14:49:39.939Z,27.27
2023-04-06T14:52:06.788Z,26.44
2023-04-06T14:54:34.642Z,26.92
2023-04-06T14:57:01.560Z,27.51
2023-04-06T15:02:02.472Z,28.88
2023-04-06T15:04:30.550Z,28.87
2023-04-06T15:06:58.692Z,28.55
2023-04-06T15:09:26.549Z,27.92
2023-04-06T15:11:54.361Z,27.45
2023-04-06T15:14:22.245Z,27.84
2023-04-06T15:16:51.712Z,29.04
2023-04-06T15:19:19.625Z,28.25
2023-04-06T15:21:47.410Z,29.86
2023-04-06T15:24:14.505Z,27.18
2023-04-06T15:26:41.336Z,29.92
2023-04-06T15:29:08.049Z,30.22
2023-04-06T15:31:38.069Z,30.39
2023-04-06T15:34:07.250Z,28.97
2023-04-06T15:36:34.343Z,29.08
2023-04-06T15:39:01.338Z,29.15
2023-04-06T15:41:28.163Z,27.94
2023-04-06T15:43:55.859Z,30.28
2023-04-06T15:46:23.104Z,29.00
2023-04-06T15:48:49.891Z,28.69
2023-04-06T15:51:18.201Z,28.34
2023-04-06T15:53:52.134Z,27.84
2023-04-06T15:56:19.128Z,30.37
2023-04-06T15:58:46.126Z,29.76
2023-04-06T16:01:13.860Z,31.23
2023-04-06T16:03:40.812Z,28.66
2023-04-06T16:06:09.236Z,29.44
2023-04-06T16:08:39.182Z,30.22
2023-04-06T16:11:06.074Z,29.34
2023-04-06T16:13:33.418Z,29.93
2023-04-06T16:16:00.287Z,29.23
2023-04-06T16:18:27.097Z,28.81
2023-04-06T16:20:53.940Z,31.00
2023-04-06T16:23:20.751Z,31.14
2023-04-06T16:25:49.793Z,31.35
2023-04-06T16:28:16.841Z,31.31
2023-04-06T16:30:45.820Z,29.81
2023-04-06T16:33:19.429Z,30.94
2023-04-06T16:35:47.481Z,30.31
2023-04-06T16:38:15.276Z,30.61
2023-04-06T16:40:42.569Z,29.24
2023-04-06T16:43:11.464Z,33.21
2023-04-06T16:45:38.814Z,29.92
2023-04-06T16:48:06.151Z,30.13
2023-04-06T16:50:33.128Z,28.95
2023-04-06T16:53:02.491Z,30.95
2023-04-06T16:55:29.261Z,30.31
2023-04-06T16:57:56.299Z,29.59
2023-04-06T17:00:24.896Z,29.87
2023-04-06T17:02:51.817Z,32.40
2023-04-06T17:05:18.968Z,30.29
2023-04-06T17:07:45.663Z,29.95
2023-04-06T17:10:12.399Z,30.47
2023-04-06T17:12:39.140Z,29.81
2023-04-06T17:15:07.168Z,30.29
2023-04-06T17:17:35.385Z,33.20
2023-04-06T17:20:02.188Z,32.27
2023-04-06T17:22:29.011Z,33.48
2023-04-06T17:24:55.869Z,31.54
2023-04-06T17:27:22.701Z,32.63
2023-04-06T17:29:49.601Z,32.72
2023-04-06T17:32:16.319Z,32.43
2023-04-06T17:34:44.668Z,32.32
2023-04-06T17:37:11.416Z,32.88
2023-04-06T17:39:38.206Z,33.12
2023-04-06T17:42:05.123Z,32.78
2023-04-06T17:44:32.054Z,33.89
2023-04-06T17:46:58.807Z,33.60
2023-04-06T17:49:25.582Z,33.19
2023-04-06T17:51:53.931Z,33.56
2023-04-06T17:54:20.737Z,33.90
2023-04-06T17:56:47.593Z,33.56
2023-04-06T17:59:14.458Z,35.33
2023-04-06T18:01:41.361Z,35.93
2023-04-06T18:04:08.347Z,34.88
2023-04-06T18:06:35.221Z,33.73
2023-04-06T18:09:03.485Z,35.16
2023-04-06T18:11:30.444Z,37.75
2023-04-06T18:13:57.740Z,36.34
2023-04-06T18:16:24.826Z,37.15
2023-04-06T18:18:52.082Z,34.26
2023-04-06T18:21:18.803Z,34.78
2023-04-06T18:23:46.726Z,34.38
2023-04-06T18:26:19.424Z,34.41
2023-04-06T18:28:46.661Z,34.88
2023-04-06T18:31:14.243Z,35.31
2023-04-06T18:33:41.078Z,36.10
2023-04-06T18:36:08.388Z,36.53
2023-04-06T18:38:35.183Z,35.41
2023-04-06T18:41:01.985Z,34.92
2023-04-06T18:43:30.104Z,36.19
2023-04-06T18:45:56.891Z,36.16
2023-04-06T18:48:23.630Z,36.08
2023-04-06T18:50:53.948Z,35.91
2023-04-06T18:53:20.985Z,35.99
2023-04-06T18:55:47.749Z,35.73
2023-04-06T18:58:14.461Z,35.55
2023-04-06T19:00:42.854Z,34.79
2023-04-06T19:03:09.906Z,35.02
2023-04-06T19:05:37.268Z,34.70
2023-04-06T19:08:04.164Z,35.00
2023-04-06T19:10:30.986Z,36.53
2023-04-06T19:12:57.745Z,36.09
2023-04-06T19:15:24.581Z,35.98
2023-04-06T19:17:52.771Z,37.17
2023-04-06T19:20:19.727Z,35.81
2023-04-06T19:22:46.548Z,36.72
2023-04-06T19:25:13.259Z,36.50
2023-04-06T19:27:40.007Z,35.24
2023-04-06T19:30:07.923Z,35.78
2023-04-06T19:32:34.754Z,36.17
2023-04-06T19:35:03.915Z,36.16
2023-04-06T19:37:30.678Z,36.51
2023-04-06T19:39:57.477Z,36.80
2023-04-06T19:42:24.235Z,36.27
2023-04-06T19:44:51.062Z,39.82
2023-04-06T19:47:17.847Z,38.14
2023-04-06T19:49:44.880Z,40.62
2023-04-06T19:52:13.177Z,39.51
2023-04-06T19:54:40.266Z,41.78
2023-04-06T19:57:07.394Z,42.39
2023-04-06T19:59:34.209Z,43.12
2023-04-06T20:02:01.204Z,41.40
2023-04-06T20:04:28.140Z,44.85
2023-04-06T20:06:55.005Z,44.91
2023-04-06T20:09:23.142Z,42.69
2023-04-06T20:11:49.983Z,43.02
2023-04-06T20:14:16.772Z,42.24
2023-04-06T20:16:43.611Z,43.90
2023-04-06T20:19:10.415Z,43.97
2023-04-06T20:21:38.246Z,43.34
2023-04-06T20:24:06.336Z,43.05
2023-04-06T20:26:34.562Z,42.24
2023-04-06T20:29:01.303Z,42.79
2023-04-06T20:31:28.856Z,43.96
2023-04-06T20:33:56.058Z,44.55
2023-04-06T20:36:23.108Z,45.82
2023-04-06T20:38:49.910Z,45.23
2023-04-06T20:41:16.635Z,45.54
2023-04-06T20:43:44.783Z,45.45
2023-04-06T20:46:16.271Z,46.42
2023-04-06T20:48:43.099Z,46.89
2023-04-06T20:51:17.902Z,47.50
2023-04-06T20:53:44.715Z,47.63
2023-04-06T20:56:11.690Z,47.81
2023-04-06T20:58:38.444Z,48.52
2023-04-06T21:01:11.876Z,48.57
2023-04-06T21:03:38.731Z,46.62
2023-04-06T21:06:05.745Z,51.23
2023-04-06T21:08:32.492Z,50.46
2023-04-06T21:10:59.376Z,47.23
2023-04-06T21:13:26.248Z,48.37
2023-04-06T21:15:53.482Z,48.74
2023-04-06T21:18:21.976Z,46.16
2023-04-06T21:20:49.104Z,46.96
2023-04-06T21:23:15.911Z,49.67
2023-04-06T21:25:42.644Z,50.00
2023-04-06T21:28:09.362Z,48.53
2023-04-06T21:30:37.004Z,50.68
2023-04-06T21:33:04.201Z,49.34
2023-04-06T21:35:32.360Z,49.71
2023-04-06T21:37:59.267Z,51.09
2023-04-06T21:40:26.047Z,51.54
2023-04-06T21:42:52.776Z,51.79
2023-04-06T21:45:19.534Z,50.36
2023-04-06T21:47:46.312Z,51.12
2023-04-06T21:50:13.134Z,52.02
2023-04-06T21:52:41.252Z,49.75
2023-04-06T21:55:08.746Z,51.36
2023-04-06T21:57:35.552Z,50.98
2023-04-06T22:00:02.592Z,50.37
2023-04-06T22:02:29.519Z,51.88
2023-04-06T22:04:56.609Z,51.54
2023-04-06T22:07:23.486Z,52.20
2023-04-06T22:09:53.727Z,51.45
2023-04-06T22:12:20.711Z,53.13
2023-04-06T22:14:47.490Z,52.33
2023-04-06T22:17:32.737Z,52.17
2023-04-06T22:20:00.778Z,52.42
2023-04-06T22:22:27.667Z,53.15
2023-04-06T22:24:55.855Z,52.33
2023-04-06T22:27:22.617Z,54.91
2023-04-06T22:29:49.452Z,53.49
2023-04-06T22:32:16.255Z,52.39
2023-04-06T22:34:43.173Z,51.36
2023-04-06T22:37:10.045Z,52.01
2023-04-06T22:39:36.789Z,51.86
2023-04-06T22:42:05.173Z,52.40
2023-04-06T22:44:32.026Z,52.86
2023-04-06T22:46:58.921Z,52.93
2023-04-06T22:49:25.703Z,51.19
2023-04-06T22:51:52.468Z,52.12
2023-04-06T22:54:19.459Z,51.71
2023-04-06T22:56:46.352Z,52.00
2023-04-06T22:59:14.581Z,51.80
2023-04-06T23:01:41.450Z,52.35
2023-04-06T23:04:08.362Z,51.60
2023-04-06T23:06:35.289Z,52.65
2023-04-06T23:09:02.099Z,53.33
2023-04-06T23:11:28.874Z,53.47
2023-04-06T23:13:55.746Z,52.80
2023-04-06T23:16:23.969Z,52.96
2023-04-06T23:18:50.802Z,52.65
2023-04-06T23:21:17.550Z,52.91
2023-04-06T23:23:44.382Z,53.12
2023-04-06T23:26:11.117Z,53.99
2023-04-06T23:28:37.832Z,53.54
2023-04-06T23:31:04.602Z,54.22
2023-04-06T23:33:32.751Z,55.48
2023-04-06T23:35:59.563Z,56.00
2023-04-06T23:38:26.359Z,55.48
2023-04-06T23:40:53.096Z,53.04
2023-04-06T23:43:19.844Z,54.21
2023-04-06T23:45:46.692Z,52.69
2023-04-06T23:48:13.482Z,54.88
2023-04-06T23:50:41.605Z,54.26
2023-04-06T23:53:08.384Z,53.82
2023-04-06T23:55:35.276Z,54.07
2023-04-06T23:58:02.029Z,52.10
